Time;durP1;ratioP1;P1;durP2;ratioP2;P2;SDS_P1;SDS_P2;PMS_P1;PMS_P2;Temp;Humidity;BMP_temperature;BMP_pressure;BME280_temperature;BME280_humidity;BME280_pressure;Samples;Min_cycle;Max_cycle;Signal;HPM_P1;HPM_P2
2021/04/06 00:00:16;;;;;;;8.67;3.27;;;;;;;-1.08;91.55;95665.25;1034343;28;20043;-47
2021/04/06 00:00:46;;;;;;;7.35;3.10;;;;;;;-1.14;92.31;95660.63;1035996;28;20018;-50
2021/04/06 00:01:17;;;;;;;14.07;3.23;;;;;;;-1.09;92.59;95660.22;1032393;28;20041;-50
2021/04/06 00:01:47;;;;;;;7.93;3.07;;;;;;;-1.03;92.61;95664.03;1032039;28;20026;-47
2021/04/06 00:02:19;;;;;;;8.53;3.30;;;;;;;-0.98;92.84;95664.47;1032223;28;20022;-46
2021/04/06 00:02:52;;;;;;;12.32;3.25;;;;;;;-0.97;92.93;95660.91;1028416;28;20282;-50
2021/04/06 00:03:24;;;;;;;9.32;3.58;;;;;;;-1.07;93.65;95658.31;1032534;28;20060;-46
2021/04/06 00:03:54;;;;;;;8.63;3.08;;;;;;;-1.02;94.00;95660.50;1032070;28;20029;-46
2021/04/06 00:04:27;;;;;;;6.37;2.90;;;;;;;-1.10;94.27;95654.22;1024664;28;20028;-46
2021/04/06 00:05:00;;;;;;;8.35;3.17;;;;;;;-1.07;94.30;95656.53;1022051;28;20023;-45
2021/04/06 00:05:31;;;;;;;7.15;2.75;;;;;;;-1.09;95.01;95655.88;1020916;29;20402;-45
2021/04/06 00:06:02;;;;;;;10.03;3.50;;;;;;;-1.15;95.35;95650.44;1025041;28;20050;-45
2021/04/06 00:06:34;;;;;;;10.63;3.47;;;;;;;-1.16;95.25;95657.34;1024828;28;20026;-46
2021/04/06 00:07:08;;;;;;;9.05;3.20;;;;;;;-1.16;95.77;95647.00;1032287;28;20022;-46
2021/04/06 00:07:38;;;;;;;7.45;2.90;;;;;;;-1.15;96.04;95653.81;1032841;28;20034;-45
2021/04/06 00:08:09;;;;;;;10.03;3.50;;;;;;;-1.15;96.31;95655.59;1037001;28;20034;-46
2021/04/06 00:08:39;;;;;;;7.33;2.80;;;;;;;-1.16;96.41;95649.59;1035934;28;20446;-45
2021/04/06 00:09:13;;;;;;;8.17;3.30;;;;;;;-1.17;96.53;95642.81;1032565;28;20093;-46
2021/04/06 00:09:45;;;;;;;7.53;3.50;;;;;;;-1.16;97.12;95654.75;1036136;28;20026;-46
2021/04/06 00:10:28;;;;;;;8.00;3.53;;;;;;;-1.22;97.75;95644.97;1023196;28;20033;-46
2021/04/06 00:10:59;;;;;;;9.45;3.10;;;;;;;-1.22;98.35;95652.72;1026202;28;20023;-46
2021/04/06 00:11:30;;;;;;;6.43;3.03;;;;;;;-1.21;98.35;95649.19;1030085;28;20027;-46
2021/04/06 00:12:02;;;;;;;6.00;2.90;;;;;;;-1.23;98.40;95655.44;1033588;28;20026;-46
2021/04/06 00:12:32;;;;;;;6.53;3.53;;;;;;;-1.21;98.36;95646.63;1036130;28;20472;-44
2021/04/06 00:13:03;;;;;;;10.87;3.40;;;;;;;-1.22;98.69;95644.97;1031938;28;20085;-45
2021/04/06 00:13:34;;;;;;;7.83;3.30;;;;;;;-1.20;99.42;95650.84;1028175;28;20027;-45
2021/04/06 00:14:05;;;;;;;8.73;3.15;;;;;;;-1.18;99.89;95651.50;1024023;29;20026;-46
2021/04/06 00:14:35;;;;;;;8.57;3.53;;;;;;;-1.16;98.85;95654.75;1027200;28;20081;-47
2021/04/06 00:15:08;;;;;;;7.33;3.30;;;;;;;-1.22;98.36;95650.13;1027361;28;20050;-46
2021/04/06 00:15:39;;;;;;;9.23;3.35;;;;;;;-1.21;98.71;95643.22;1028583;28;20027;-49
2021/04/06 00:16:09;;;;;;;6.27;3.20;;;;;;;-1.23;99.02;95645.94;1028064;28;20488;-46
2021/04/06 00:16:41;;;;;;;8.67;3.10;;;;;;;-1.19;99.46;95649.06;1024299;28;20023;-46
2021/04/06 00:17:12;;;;;;;8.10;3.47;;;;;;;-1.17;100.00;95647.16;1024736;28;20019;-46
2021/04/06 00:17:45;;;;;;;11.10;3.63;;;;;;;-1.14;100.00;95652.88;1032878;28;20022;-47
2021/04/06 00:18:16;;;;;;;6.85;3.30;;;;;;;-1.11;99.66;95654.38;1040809;28;20503;-45
2021/04/06 00:18:47;;;;;;;8.52;3.30;;;;;;;-1.08;99.88;95652.34;1036393;28;20021;-46
2021/04/06 00:19:18;;;;;;;8.93;3.83;;;;;;;-1.13;99.38;95648.53;1036061;28;20029;-46
2021/04/06 00:19:48;;;;;;;8.07;3.30;;;;;;;-1.13;99.46;95648.53;1031957;28;20030;-46
2021/04/06 00:20:19;;;;;;;8.93;3.60;;;;;;;-1.10;98.41;95650.84;1028169;28;20018;-45
2021/04/06 00:20:49;;;;;;;11.13;3.30;;;;;;;-1.08;98.13;95644.59;1031995;28;20018;-46
2021/04/06 00:21:20;;;;;;;8.53;2.90;;;;;;;-1.04;98.22;95644.31;1032093;28;20084;-45
2021/04/06 00:21:51;;;;;;;7.90;3.67;;;;;;;-1.04;98.31;95647.72;1036025;28;20032;-46
2021/04/06 00:22:22;;;;;;;8.63;3.30;;;;;;;-1.07;97.98;95648.78;1036015;28;20053;-45
2021/04/06 00:22:52;;;;;;;9.30;3.13;;;;;;;-1.09;98.01;95645.53;1036421;28;20029;-46
2021/04/06 00:23:24;;;;;;;6.63;3.60;;;;;;;-1.09;98.08;95645.53;1040107;28;20025;-46
2021/04/06 00:23:55;;;;;;;11.38;3.63;;;;;;;-1.12;98.13;95648.38;1032239;28;20022;-46
2021/04/06 00:24:26;;;;;;;9.73;3.63;;;;;;;-1.11;98.17;95646.59;1031885;28;20559;-45
2021/04/06 00:24:57;;;;;;;8.30;3.30;;;;;;;-1.11;97.71;95642.28;1031869;28;20050;-46
2021/04/06 00:25:32;;;;;;;9.03;3.37;;;;;;;-1.13;97.63;95638.19;1035894;28;20432;-44
2021/04/06 00:26:03;;;;;;;6.97;3.25;;;;;;;-1.15;98.50;95647.84;1032946;28;20033;-45
2021/04/06 00:26:48;;;;;;;9.90;3.57;;;;;;;-1.15;97.96;95646.06;1033071;28;20025;-45
2021/04/06 00:27:23;;;;;;;10.45;3.55;;;;;;;-1.14;98.03;95641.72;1030655;28;20026;-45
2021/04/06 00:27:53;;;;;;;7.68;3.40;;;;;;;-1.20;98.24;95642.25;1030857;28;20069;-45
2021/04/06 00:28:28;;;;;;;10.87;3.57;;;;;;;-1.23;98.71;95635.59;1027049;28;20124;-45
2021/04/06 00:28:58;;;;;;;8.82;3.42;;;;;;;-1.21;98.67;95644.03;1022822;28;20075;-45
2021/04/06 00:29:31;;;;;;;9.53;3.77;;;;;;;-1.18;98.45;95643.75;1020717;29;20114;-47
2021/04/06 00:30:11;;;;;;;9.23;3.58;;;;;;;-1.20;98.39;95644.84;1019987;29;20470;-45
2021/04/06 00:30:42;;;;;;;7.68;3.35;;;;;;;-1.20;98.71;95647.41;1023801;28;20528;-45
2021/04/06 00:31:12;;;;;;;6.20;3.37;;;;;;;-1.22;99.23;95642.38;1025899;28;20026;-46
2021/04/06 00:31:44;;;;;;;10.40;3.77;;;;;;;-1.20;98.42;95643.09;1025378;28;20053;-45
2021/04/06 00:32:15;;;;;;;7.40;3.38;;;;;;;-1.21;98.43;95644.03;1028601;28;20015;-46
2021/04/06 00:32:46;;;;;;;8.40;3.45;;;;;;;-1.17;98.35;95644.56;1032377;28;20102;-46
2021/04/06 00:33:33;;;;;;;8.80;3.37;;;;;;;-1.13;98.03;95648.53;1028232;28;20030;-45
2021/04/06 00:34:03;;;;;;;8.85;3.25;;;;;;;-1.13;97.83;95644.16;1032012;28;20010;-45
2021/04/06 00:34:34;;;;;;;9.40;3.50;;;;;;;-1.12;97.98;95638.06;1032170;28;20026;-44
2021/04/06 00:35:05;;;;;;;9.43;3.80;;;;;;;-1.19;98.02;95643.91;1023899;28;20015;-45
2021/04/06 00:35:36;;;;;;;11.57;3.33;;;;;;;-1.16;97.69;95644.44;1023472;28;20023;-46
2021/04/06 00:36:07;;;;;;;9.77;3.27;;;;;;;-1.16;98.32;95634.09;1024994;28;20015;-45
2021/04/06 00:36:37;;;;;;;13.40;3.50;;;;;;;-1.15;98.61;95640.91;1036876;28;20336;-45
2021/04/06 00:37:14;;;;;;;7.40;3.63;;;;;;;-1.19;98.90;95646.47;1039882;28;20513;-45
2021/04/06 00:37:47;;;;;;;8.18;3.15;;;;;;;-1.23;98.58;95642.53;1031947;28;20058;-45
2021/04/06 00:38:18;;;;;;;6.40;3.45;;;;;;;-1.18;98.06;95640.38;1024098;29;20074;-45
2021/04/06 00:38:48;;;;;;;6.13;3.13;;;;;;;-1.16;97.95;95644.44;1027036;28;20019;-45
2021/04/06 00:39:32;;;;;;;10.27;3.40;;;;;;;-1.15;98.09;95643.50;1020499;29;20043;-46
2021/04/06 00:40:08;;;;;;;7.68;3.30;;;;;;;-1.23;97.87;95643.34;1027634;28;20021;-46
2021/04/06 00:40:42;;;;;;;12.27;3.83;;;;;;;-1.26;98.17;95638.44;1034425;28;20101;-45
2021/04/06 00:41:13;;;;;;;6.75;3.40;;;;;;;-1.18;98.23;95640.38;1039121;28;20070;-46
2021/04/06 00:41:44;;;;;;;10.82;3.40;;;;;;;-1.16;97.49;95634.09;1040066;28;20021;-46
2021/04/06 00:42:19;;;;;;;6.63;3.50;;;;;;;-1.20;98.04;95634.50;1035897;28;20373;-45
2021/04/06 00:42:50;;;;;;;6.55;3.67;;;;;;;-1.17;97.80;95639.41;1036071;28;20102;-46
2021/04/06 00:43:20;;;;;;;9.67;3.40;;;;;;;-1.16;97.31;95638.47;1031882;28;20038;-48
2021/04/06 00:43:51;;;;;;;9.50;3.60;;;;;;;-1.14;97.63;95642.56;1036642;28;20522;-47
2021/04/06 00:44:21;;;;;;;11.77;3.53;;;;;;;-1.12;97.74;95642.41;1039211;28;20029;-46
2021/04/06 00:44:54;;;;;;;7.93;3.70;;;;;;;-1.09;97.61;95642.16;1028486;28;20034;-47
2021/04/06 00:45:25;;;;;;;12.43;3.70;;;;;;;-1.11;97.46;95634.53;1028356;28;20389;-49
2021/04/06 00:45:55;;;;;;;7.40;3.27;;;;;;;-1.11;96.92;95636.28;1031979;28;20469;-47
2021/04/06 00:46:27;;;;;;;7.50;3.30;;;;;;;-1.11;96.89;95628.53;1028729;28;20044;-46
2021/04/06 00:46:58;;;;;;;8.27;3.35;;;;;;;-1.13;96.99;95633.81;1036104;28;20471;-45
2021/04/06 00:47:29;;;;;;;8.17;3.10;;;;;;;-1.10;96.90;95632.75;1040052;28;20029;-45
2021/04/06 00:48:13;;;;;;;7.78;3.50;;;;;;;-1.24;97.83;95633.97;1040206;28;20017;-45
2021/04/06 00:48:45;;;;;;;9.60;3.13;;;;;;;-1.21;97.02;95631.13;1039770;28;20028;-44
2021/04/06 00:49:16;;;;;;;10.15;3.50;;;;;;;-1.23;96.94;95633.03;1040357;28;20563;-44
2021/04/06 00:49:46;;;;;;;9.85;3.72;;;;;;;-1.21;97.44;95633.69;1036451;28;20115;-45
2021/04/06 00:50:17;;;;;;;8.93;3.70;;;;;;;-1.19;97.91;95636.16;1032590;28;20022;-45
2021/04/06 00:51:10;;;;;;;7.80;3.70;;;;;;;-1.19;97.31;95626.63;1032046;28;20073;-45
2021/04/06 00:51:40;;;;;;;8.80;3.53;;;;;;;-1.24;97.69;95633.97;1035393;28;20018;-44
2021/04/06 00:52:11;;;;;;;10.83;3.50;;;;;;;-1.27;98.07;95629.06;1039349;28;20136;-45
2021/04/06 00:52:45;;;;;;;12.07;3.47;;;;;;;-1.26;98.22;95625.50;1043440;28;20032;-45
2021/04/06 00:53:15;;;;;;;11.32;3.70;;;;;;;-1.24;97.22;95631.38;1040519;28;20463;-45
2021/04/06 00:53:53;;;;;;;8.53;3.97;;;;;;;-1.28;97.89;95630.81;1032208;28;20023;-45
2021/04/06 00:54:23;;;;;;;10.52;3.67;;;;;;;-1.29;97.89;95633.53;1032173;28;20030;-44
2021/04/06 00:54:57;;;;;;;9.13;3.30;;;;;;;-1.31;97.77;95631.09;1031978;28;20027;-45
2021/04/06 00:55:35;;;;;;;11.68;4.13;;;;;;;-1.31;97.65;95633.66;1032656;28;20022;-45
2021/04/06 00:56:13;;;;;;;8.52;3.70;;;;;;;-1.32;97.86;95637.22;1035726;28;20446;-45
2021/04/06 00:56:44;;;;;;;12.70;3.50;;;;;;;-1.36;96.77;95635.03;1039422;28;20032;-46
2021/04/06 00:57:14;;;;;;;9.90;3.80;;;;;;;-1.41;97.35;95632.84;1041276;28;20018;-45
2021/04/06 00:57:46;;;;;;;9.57;4.00;;;;;;;-1.40;97.30;95633.66;1036996;28;20025;-46
2021/04/06 00:58:16;;;;;;;8.80;3.50;;;;;;;-1.39;97.11;95636.09;1038538;28;20040;-45
2021/04/06 00:58:49;;;;;;;9.73;3.60;;;;;;;-1.42;97.64;95633.78;1040638;28;20100;-46
2021/04/06 00:59:23;;;;;;;11.07;4.07;;;;;;;-1.45;98.13;95636.66;1042059;28;20017;-45
2021/04/06 01:00:24;;;;;;;7.80;3.50;;;;;;;-1.53;99.02;95641.66;1049011;28;20044;-45
2021/04/06 01:00:55;;;;;;;11.63;3.83;;;;;;;-1.50;99.44;95638.81;1048547;28;20099;-45
2021/04/06 01:01:49;;;;;;;11.67;4.50;;;;;;;-1.51;99.99;95639.75;1040739;28;20025;-46
2021/04/06 01:02:20;;;;;;;10.10;3.45;;;;;;;-1.46;98.56;95633.25;1040571;28;20045;-46
2021/04/06 01:03:05;;;;;;;7.73;3.60;;;;;;;-1.42;98.34;95640.72;1036456;28;20021;-46
2021/04/06 01:03:40;;;;;;;7.90;3.83;;;;;;;-1.44;98.65;95635.69;1040800;28;20017;-46
2021/04/06 01:04:18;;;;;;;9.15;3.90;;;;;;;-1.39;98.98;95637.88;1032811;28;20029;-45
2021/04/06 01:04:48;;;;;;;11.27;3.97;;;;;;;-1.40;98.29;95637.06;1039765;28;20383;-45
2021/04/06 01:05:19;;;;;;;9.50;3.77;;;;;;;-1.39;98.19;95632.72;1036669;28;20018;-45
2021/04/06 01:05:58;;;;;;;8.07;3.63;;;;;;;-1.41;97.99;95638.03;1033644;28;20293;-45
2021/04/06 01:06:29;;;;;;;6.88;3.88;;;;;;;-1.44;97.97;95636.50;1032593;28;20034;-45
2021/04/06 01:07:14;;;;;;;9.67;3.77;;;;;;;-1.49;98.72;95633.53;1027133;28;20023;-48
2021/04/06 01:07:45;;;;;;;8.50;4.00;;;;;;;-1.50;99.11;95631.88;1027726;28;20018;-46
2021/04/06 01:08:16;;;;;;;10.47;4.47;;;;;;;-1.54;99.61;95632.28;1032681;28;20019;-45
2021/04/06 01:08:46;;;;;;;10.50;3.80;;;;;;;-1.55;99.23;95634.06;1034741;28;20021;-45
2021/04/06 01:09:16;;;;;;;7.30;3.83;;;;;;;-1.55;100.00;95628.06;1032728;28;20061;-45
2021/04/06 01:09:51;;;;;;;9.53;3.87;;;;;;;-1.57;100.00;95630.75;1028616;28;20529;-45
2021/04/06 01:10:23;;;;;;;8.85;4.28;;;;;;;-1.53;100.00;95628.75;1029806;28;20042;-45
2021/04/06 01:10:54;;;;;;;7.88;4.22;;;;;;;-1.57;100.00;95633.34;1037273;28;20025;-46
2021/04/06 01:11:25;;;;;;;7.53;3.80;;;;;;;-1.55;100.00;95638.38;1037633;28;20123;-46
2021/04/06 01:11:55;;;;;;;9.10;4.40;;;;;;;-1.63;100.00;95631.28;1040821;28;20434;-46
2021/04/06 01:12:27;;;;;;;6.90;4.00;;;;;;;-1.63;100.00;95626.94;1040707;28;20017;-46
2021/04/06 01:12:58;;;;;;;8.60;4.35;;;;;;;-1.60;100.00;95625.88;1041046;28;20104;-46
2021/04/06 01:13:28;;;;;;;9.70;4.30;;;;;;;-1.69;100.00;95632.63;1045128;28;20471;-43
2021/04/06 01:14:00;;;;;;;9.67;4.57;;;;;;;-1.68;100.00;95626.53;1044905;28;20021;-47
2021/04/06 01:14:31;;;;;;;7.88;4.30;;;;;;;-1.71;100.00;95623.41;1044842;28;20013;-44
2021/04/06 01:15:02;;;;;;;10.02;4.90;;;;;;;-1.68;100.00;95620.56;1044771;28;20406;-44
2021/04/06 01:15:32;;;;;;;8.63;4.03;;;;;;;-1.62;100.00;95626.00;1044998;28;20013;-45
2021/04/06 01:16:03;;;;;;;11.50;4.90;;;;;;;-1.63;100.00;95626.13;1045132;28;20052;-45
2021/04/06 01:16:34;;;;;;;10.23;4.32;;;;;;;-1.62;100.00;95628.56;1044920;28;20017;-44
2021/04/06 01:17:05;;;;;;;7.93;4.27;;;;;;;-1.65;100.00;95628.03;1039850;28;20033;-45
2021/04/06 01:17:36;;;;;;;6.63;3.97;;;;;;;-1.70;100.00;95630.19;1040736;28;20376;-44
2021/04/06 01:18:06;;;;;;;8.13;4.47;;;;;;;-1.72;100.00;95627.72;1040817;28;20010;-45
2021/04/06 01:18:37;;;;;;;8.80;4.43;;;;;;;-1.76;100.00;95621.22;1036662;28;20026;-46
2021/04/06 01:19:08;;;;;;;7.70;4.23;;;;;;;-1.75;100.00;95629.75;1040610;28;20021;-46
2021/04/06 01:19:38;;;;;;;8.30;4.32;;;;;;;-1.76;100.00;95626.38;1040833;28;20162;-45
2021/04/06 01:20:12;;;;;;;17.47;6.13;;;;;;;-1.82;100.00;95630.28;1040749;28;20126;-46
2021/04/06 01:20:43;;;;;;;11.82;4.45;;;;;;;-1.84;100.00;95624.44;1040875;28;20018;-46
2021/04/06 01:21:14;;;;;;;12.95;4.75;;;;;;;-1.86;100.00;95618.59;1040724;28;20017;-44
2021/04/06 01:21:46;;;;;;;11.37;5.13;;;;;;;-1.89;100.00;95621.44;1036640;28;20116;-44
2021/04/06 01:22:17;;;;;;;8.05;4.70;;;;;;;-1.87;100.00;95623.88;1032723;28;20066;-45
2021/04/06 01:22:49;;;;;;;9.80;4.47;;;;;;;-1.90;100.00;95624.94;1032867;28;20019;-44
2021/04/06 01:23:19;;;;;;;12.73;4.90;;;;;;;-1.89;100.00;95624.00;1033217;28;20077;-44
2021/04/06 01:23:50;;;;;;;11.07;5.00;;;;;;;-1.91;100.00;95617.34;1033080;28;20112;-46
2021/04/06 01:24:20;;;;;;;9.43;4.83;;;;;;;-1.91;100.00;95619.91;1036656;28;20384;-45
2021/04/06 01:24:51;;;;;;;8.83;4.70;;;;;;;-1.94;100.00;95618.44;1036710;28;20045;-45
2021/04/06 01:25:24;;;;;;;8.80;5.20;;;;;;;-1.92;100.00;95618.31;1040680;28;20101;-48
2021/04/06 01:25:56;;;;;;;15.23;5.05;;;;;;;-2.00;100.00;95619.75;1041042;28;20033;-45
2021/04/06 01:26:27;;;;;;;8.98;5.10;;;;;;;-2.04;100.00;95615.81;1040735;28;20095;-45
2021/04/06 01:26:58;;;;;;;15.40;5.20;;;;;;;-1.97;100.00;95616.13;1040543;28;20806;-45
2021/04/06 01:27:29;;;;;;;10.45;5.07;;;;;;;-1.99;100.00;95621.41;1040430;28;20459;-46
2021/04/06 01:28:09;;;;;;;9.93;4.93;;;;;;;-1.97;100.00;95626.44;1040579;28;20025;-47
2021/04/06 01:28:39;;;;;;;11.27;4.95;;;;;;;-1.97;100.00;95618.69;1032368;28;20025;-46
2021/04/06 01:29:10;;;;;;;13.17;4.80;;;;;;;-1.94;100.00;95622.75;1034041;28;20026;-47
2021/04/06 01:29:46;;;;;;;10.43;4.60;;;;;;;-2.02;100.00;95621.66;1036518;28;20120;-46
2021/04/06 01:30:22;;;;;;;10.55;5.00;;;;;;;-2.04;100.00;95617.56;1037540;28;20384;-45
2021/04/06 01:30:53;;;;;;;10.70;4.80;;;;;;;-2.03;100.00;95624.38;1040537;28;20171;-46
2021/04/06 01:31:23;;;;;;;6.13;4.50;;;;;;;-2.00;100.00;95618.97;1040817;28;20020;-45
2021/04/06 01:31:55;;;;;;;13.27;4.73;;;;;;;-1.97;100.00;95621.28;1032419;28;20065;-47
2021/04/06 01:32:27;;;;;;;10.13;4.97;;;;;;;-2.00;100.00;95621.53;1028717;28;20070;-44
2021/04/06 01:32:57;;;;;;;9.00;4.85;;;;;;;-2.01;100.00;95618.13;1028491;28;20570;-45
2021/04/06 01:33:30;;;;;;;11.00;4.47;;;;;;;-2.00;100.00;95624.13;1025439;28;20150;-48
2021/04/06 01:34:02;;;;;;;10.57;4.75;;;;;;;-2.05;100.00;95615.94;1029093;28;20015;-47
2021/04/06 01:34:36;;;;;;;10.30;5.05;;;;;;;-2.05;100.00;95619.34;1028503;28;20465;-47
2021/04/06 01:35:07;;;;;;;11.97;5.30;;;;;;;-2.05;100.00;95614.19;1022493;28;20020;-45
2021/04/06 01:35:38;;;;;;;10.18;4.38;;;;;;;-2.07;100.00;95617.84;1029766;28;20049;-46
2021/04/06 01:36:08;;;;;;;11.27;4.40;;;;;;;-2.07;100.00;95618.63;1033396;28;20451;-46
2021/04/06 01:36:39;;;;;;;14.80;5.67;;;;;;;-2.07;100.00;95621.22;1036811;28;20112;-49
2021/04/06 01:37:09;;;;;;;7.53;4.60;;;;;;;-2.07;100.00;95615.25;1040725;28;20363;-46
2021/04/06 01:37:40;;;;;;;12.30;5.10;;;;;;;-2.08;100.00;95614.44;1040676;28;20010;-46
2021/04/06 01:38:11;;;;;;;9.57;4.60;;;;;;;-2.08;100.00;95618.75;1037477;28;20359;-45
2021/04/06 01:38:42;;;;;;;10.60;4.63;;;;;;;-2.09;100.00;95615.38;1032153;28;20519;-46
2021/04/06 01:39:15;;;;;;;11.83;5.27;;;;;;;-2.06;100.00;95619.47;1028411;28;20114;-45
2021/04/06 01:39:46;;;;;;;9.57;4.70;;;;;;;-2.06;100.00;95617.69;1029099;28;20015;-45
2021/04/06 01:40:16;;;;;;;10.13;4.83;;;;;;;-2.07;100.00;95610.09;1028858;28;20014;-46
2021/04/06 01:40:47;;;;;;;11.10;5.10;;;;;;;-2.07;100.00;95617.84;1033264;28;20041;-45
2021/04/06 01:41:17;;;;;;;8.77;4.70;;;;;;;-2.05;100.00;95613.34;1036785;28;20360;-45
2021/04/06 01:41:50;;;;;;;8.97;4.67;;;;;;;-2.07;100.00;95610.09;1036701;28;20014;-46
2021/04/06 01:42:22;;;;;;;10.82;5.45;;;;;;;-2.04;100.00;95608.06;1040886;28;20043;-47
2021/04/06 01:42:53;;;;;;;8.43;4.53;;;;;;;-2.03;100.00;95608.91;1040712;28;20035;-47
2021/04/06 01:43:28;;;;;;;9.27;4.80;;;;;;;-1.99;100.00;95615.41;1032356;28;20029;-45
2021/04/06 01:43:58;;;;;;;12.50;4.93;;;;;;;-1.99;100.00;95610.25;1032622;28;20018;-45
2021/04/06 01:44:29;;;;;;;9.80;4.70;;;;;;;-2.01;100.00;95614.72;1028356;28;20026;-44
2021/04/06 01:45:05;;;;;;;8.48;4.72;;;;;;;-2.05;100.00;95610.78;1030729;28;20023;-45
2021/04/06 01:45:43;;;;;;;9.95;5.25;;;;;;;-2.05;100.00;95611.59;1037689;28;20025;-45
2021/04/06 01:46:19;;;;;;;10.25;4.95;;;;;;;-2.10;100.00;95603.41;1035574;28;20022;-48
2021/04/06 01:46:50;;;;;;;14.05;5.45;;;;;;;-2.06;100.00;95606.56;1034850;28;20022;-45
2021/04/06 01:47:22;;;;;;;10.10;4.50;;;;;;;-2.06;100.00;95609.97;1034909;28;20464;-46
2021/04/06 01:47:52;;;;;;;8.50;4.50;;;;;;;-2.05;100.00;95600.44;1027864;28;20050;-46
2021/04/06 01:48:24;;;;;;;10.73;5.03;;;;;;;-2.07;100.00;95610.91;1029432;28;20047;-45
2021/04/06 01:48:54;;;;;;;10.35;4.82;;;;;;;-2.05;100.00;95610.78;1024582;28;20107;-46
2021/04/06 01:49:25;;;;;;;8.87;4.57;;;;;;;-2.01;100.00;95602.63;1028949;28;20069;-46
2021/04/06 01:49:56;;;;;;;11.80;5.13;;;;;;;-2.00;100.00;95603.47;1032399;28;20073;-45
2021/04/06 01:50:26;;;;;;;9.00;4.38;;;;;;;-1.95;100.00;95609.06;1032718;28;20045;-48
2021/04/06 01:50:57;;;;;;;12.13;4.67;;;;;;;-2.02;100.00;95603.59;1036438;28;20037;-47
2021/04/06 01:51:28;;;;;;;14.03;4.83;;;;;;;-1.97;100.00;95603.22;1032749;28;20077;-48
2021/04/06 01:51:58;;;;;;;8.83;5.37;;;;;;;-1.98;100.00;95607.53;1036515;28;20070;-47
2021/04/06 01:52:29;;;;;;;11.70;4.63;;;;;;;-1.97;100.00;95608.38;1036536;28;20030;-46
2021/04/06 01:53:00;;;;;;;11.53;4.80;;;;;;;-1.93;100.00;95601.97;1032358;28;20064;-45
2021/04/06 01:53:30;;;;;;;11.05;4.90;;;;;;;-1.91;100.00;95602.69;1032654;28;20464;-46
2021/04/06 01:54:05;;;;;;;9.33;4.97;;;;;;;-1.89;100.00;95605.94;1036552;28;20033;-46
2021/04/06 01:54:38;;;;;;;7.30;4.47;;;;;;;-1.84;100.00;95608.13;1037004;28;20022;-49
2021/04/06 01:55:15;;;;;;;11.40;5.10;;;;;;;-1.85;100.00;95607.31;1036530;28;20464;-48
2021/04/06 01:56:27;;;;;;;10.40;4.50;;;;;;;-1.86;100.00;95605.69;1038392;28;20026;-47
2021/04/06 01:56:53;;;;;;;13.90;4.97;;;;;;;-1.87;100.00;95608.41;1036383;28;20483;-47
2021/04/06 01:57:29;;;;;;;8.13;4.45;;;;;;;-1.93;100.00;95607.16;1036385;28;20014;-46
2021/04/06 01:58:01;;;;;;;9.25;4.38;;;;;;;-1.88;100.00;95606.75;1038236;28;20030;-45
2021/04/06 01:58:33;;;;;;;11.68;4.85;;;;;;;-1.90;100.00;95601.72;1037795;28;20021;-46
2021/04/06 01:59:05;;;;;;;8.45;5.10;;;;;;;-1.89;100.00;95598.19;1036301;28;20039;-48
2021/04/06 01:59:37;;;;;;;10.05;5.15;;;;;;;-1.92;100.00;95600.25;1036440;28;20072;-45
2021/04/06 02:01:00;;;;;;;12.95;5.15;;;;;;;-2.00;100.00;95595.75;1029160;28;20027;-47
2021/04/06 02:01:49;;;;;;;11.70;4.60;;;;;;;-2.00;100.00;95593.97;1037477;28;20013;-46
2021/04/06 02:02:26;;;;;;;11.90;5.07;;;;;;;-2.04;100.00;95596.94;1040622;28;20476;-46
2021/04/06 02:03:01;;;;;;;9.52;4.28;;;;;;;-2.05;100.00;95595.28;1040293;28;20025;-46
2021/04/06 02:03:33;;;;;;;11.20;4.97;;;;;;;-2.05;100.00;95595.28;1040591;28;20013;-45
2021/04/06 02:04:06;;;;;;;9.40;4.68;;;;;;;-2.07;100.00;95592.03;1038506;28;20022;-45
2021/04/06 02:04:37;;;;;;;10.07;4.70;;;;;;;-2.07;100.00;95595.41;1036388;28;20530;-45
2021/04/06 02:05:10;;;;;;;10.73;4.85;;;;;;;-2.08;100.00;95596.38;1037102;28;20022;-45
2021/04/06 02:05:42;;;;;;;9.65;4.72;;;;;;;-2.08;100.00;95592.97;1036382;28;20485;-47
2021/04/06 02:06:13;;;;;;;10.77;4.65;;;;;;;-2.08;100.00;95590.38;1033069;28;20073;-46
2021/04/06 02:06:44;;;;;;;6.07;4.37;;;;;;;-2.08;100.00;95595.56;1032299;28;20100;-46
2021/04/06 02:07:15;;;;;;;11.57;4.70;;;;;;;-2.10;100.00;95592.28;1024400;29;20275;-46
2021/04/06 02:07:47;;;;;;;10.23;4.60;;;;;;;-2.12;100.00;95589.03;1024884;28;20528;-46
2021/04/06 02:08:19;;;;;;;12.52;4.90;;;;;;;-2.11;100.00;95585.50;1032464;28;20396;-46
2021/04/06 02:08:51;;;;;;;9.38;5.05;;;;;;;-2.10;100.00;95587.13;1033384;28;20107;-46
2021/04/06 02:09:21;;;;;;;11.55;5.35;;;;;;;-2.12;100.00;95591.63;1041331;28;20097;-46
2021/04/06 02:09:52;;;;;;;11.87;5.50;;;;;;;-2.13;100.00;95584.81;1044348;28;20021;-47
2021/04/06 02:10:22;;;;;;;8.67;4.97;;;;;;;-2.15;100.00;95582.38;1040779;28;20013;-46
2021/04/06 02:10:53;;;;;;;11.83;5.13;;;;;;;-2.17;100.00;95586.81;1036362;28;20029;-46
2021/04/06 02:11:26;;;;;;;10.10;5.30;;;;;;;-2.17;100.00;95587.66;1032600;28;20014;-46
2021/04/06 02:11:57;;;;;;;9.60;4.90;;;;;;;-2.18;100.00;95587.78;1029591;28;20523;-46
2021/04/06 02:12:27;;;;;;;12.27;5.03;;;;;;;-2.19;100.00;95588.72;1029250;28;20069;-46
2021/04/06 02:13:11;;;;;;;10.13;5.60;;;;;;;-2.29;100.00;95588.69;1036866;28;20026;-46
2021/04/06 02:13:42;;;;;;;12.70;5.25;;;;;;;-2.32;100.00;95581.22;1039559;28;20009;-48
2021/04/06 02:14:14;;;;;;;11.47;4.93;;;;;;;-2.30;100.00;95581.88;1040453;28;20028;-46
2021/04/06 02:14:45;;;;;;;10.65;4.97;;;;;;;-2.28;100.00;95594.66;1040252;28;20017;-45
2021/04/06 02:15:15;;;;;;;9.40;5.03;;;;;;;-2.28;100.00;95582.56;1041699;28;20025;-48
2021/04/06 02:15:55;;;;;;;8.23;5.37;;;;;;;-2.27;100.00;95586.78;1044644;28;20029;-47
2021/04/06 02:16:26;;;;;;;13.18;5.22;;;;;;;-2.28;100.00;95584.34;1044609;28;20076;-48
2021/04/06 02:17:01;;;;;;;10.73;5.17;;;;;;;-2.28;100.00;95592.06;1039766;28;20077;-46
2021/04/06 02:17:31;;;;;;;9.07;5.40;;;;;;;-2.29;100.00;95582.69;1040437;28;20032;-46
2021/04/06 02:18:02;;;;;;;12.37;5.40;;;;;;;-2.30;100.00;95586.25;1040494;28;20025;-47
2021/04/06 02:18:32;;;;;;;11.30;4.97;;;;;;;-2.28;100.00;95587.72;1040327;28;20024;-47
2021/04/06 02:19:03;;;;;;;14.97;4.57;;;;;;;-2.26;100.00;95587.59;1040734;28;20375;-47
2021/04/06 02:19:39;;;;;;;9.70;4.70;;;;;;;-2.23;100.00;95593.34;1040688;28;20152;-46
2021/04/06 02:20:17;;;;;;;11.57;4.50;;;;;;;-2.26;100.00;95592.75;1041878;28;20021;-45
2021/04/06 02:20:54;;;;;;;10.77;4.38;;;;;;;-2.31;100.00;95585.41;1040455;28;20100;-47
2021/04/06 02:21:27;;;;;;;11.60;5.03;;;;;;;-2.28;100.00;95586.91;1036398;28;20061;-46
2021/04/06 02:22:16;;;;;;;12.57;4.97;;;;;;;-2.31;100.00;95582.81;1032299;28;20420;-46
2021/04/06 02:23:13;;;;;;;9.30;4.70;;;;;;;-2.25;100.00;95578.94;1040013;28;20024;-46
2021/04/06 02:23:44;;;;;;;7.60;4.57;;;;;;;-2.25;100.00;95584.09;1044384;28;20063;-47
2021/04/06 02:24:35;;;;;;;8.57;4.30;;;;;;;-2.24;100.00;95583.16;1044885;28;20029;-47
2021/04/06 02:25:07;;;;;;;10.15;4.53;;;;;;;-2.22;100.00;95588.97;1042969;28;20021;-46
2021/04/06 02:25:37;;;;;;;8.68;4.60;;;;;;;-2.23;100.00;95582.19;1044392;28;20488;-49
2021/04/06 02:26:08;;;;;;;8.97;5.03;;;;;;;-2.24;100.00;95591.69;1043026;28;20059;-45
2021/04/06 02:26:38;;;;;;;10.87;4.93;;;;;;;-2.27;100.00;95585.97;1041063;28;20021;-46
2021/04/06 02:27:25;;;;;;;12.70;4.70;;;;;;;-2.34;99.64;95586.50;1036348;28;20408;-47
2021/04/06 02:27:56;;;;;;;9.18;4.57;;;;;;;-2.29;99.72;95586.13;1034431;28;20049;-47
2021/04/06 02:28:26;;;;;;;10.00;4.37;;;;;;;-2.34;99.80;95590.81;1032024;28;20053;-48
2021/04/06 02:28:57;;;;;;;9.77;4.50;;;;;;;-2.44;100.00;95584.81;1030535;28;20034;-45
2021/04/06 02:29:27;;;;;;;8.40;4.67;;;;;;;-2.37;100.00;95585.94;1028334;28;20014;-46
2021/04/06 02:29:59;;;;;;;8.73;4.50;;;;;;;-2.38;100.00;95585.13;1032407;28;20026;-45
2021/04/06 02:30:30;;;;;;;11.90;4.57;;;;;;;-2.37;99.77;95585.94;1036630;28;20363;-45
2021/04/06 02:31:03;;;;;;;7.90;4.53;;;;;;;-2.35;100.00;95589.22;1040380;28;20017;-45
2021/04/06 02:31:33;;;;;;;8.43;4.65;;;;;;;-2.33;100.00;95588.13;1040730;28;20060;-45
2021/04/06 02:32:11;;;;;;;11.43;4.80;;;;;;;-2.25;100.00;95587.47;1036277;28;20073;-45
2021/04/06 02:32:41;;;;;;;9.82;4.85;;;;;;;-2.27;100.00;95585.97;1036308;28;20049;-45
2021/04/06 02:33:12;;;;;;;11.33;4.87;;;;;;;-2.24;100.00;95591.69;1036327;28;20048;-45
2021/04/06 02:33:43;;;;;;;9.27;4.70;;;;;;;-2.23;100.00;95595.91;1033355;28;20014;-46
2021/04/06 02:34:14;;;;;;;9.15;4.80;;;;;;;-2.32;100.00;95591.53;1032271;28;20082;-45